Time;durP1;ratioP1;P1;durP2;ratioP2;P2;SDS_P1;SDS_P2;PMS_P1;PMS_P2;Temp;Humidity;BMP_temperature;BMP_pressure;BME280_temperature;BME280_humidity;BME280_pressure;Samples;Min_cycle;Max_cycle;Signal;HPM_P1;HPM_P2
2022/06/23 00:02:56;;;;;;;4.35;2.47;;;24.70;48.80;;;;;;6157257;28;83869;-69
2022/06/23 00:05:56;;;;;;;5.70;2.65;;;24.70;48.80;;;;;;6156748;28;80558;-70
2022/06/23 00:08:57;;;;;;;5.35;2.75;;;24.70;48.60;;;;;;6158394;28;81896;-69
2022/06/23 00:11:57;;;;;;;5.75;2.92;;;24.70;48.60;;;;;;6158153;28;80422;-69
2022/06/23 00:14:58;;;;;;;5.55;3.05;;;24.70;48.70;;;;;;6157999;28;81389;-69
2022/06/23 00:17:58;;;;;;;5.88;3.03;;;24.70;48.90;;;;;;6147021;28;80418;-69
2022/06/23 00:20:59;;;;;;;5.70;2.90;;;24.70;48.70;;;;;;6158547;28;81138;-69
2022/06/23 00:24:00;;;;;;;7.53;3.20;;;24.60;48.80;;;;;;6157421;28;80538;-69
2022/06/23 00:27:00;;;;;;;7.07;3.20;;;24.60;49.00;;;;;;6158581;28;80901;-69
2022/06/23 00:30:01;;;;;;;6.28;3.08;;;24.60;49.00;;;;;;6156779;28;83616;-69
2022/06/23 00:33:01;;;;;;;4.75;3.20;;;24.60;49.10;;;;;;6158164;28;80307;-69
2022/06/23 00:36:02;;;;;;;6.10;2.75;;;24.60;49.10;;;;;;6156035;28;81571;-69
2022/06/23 00:39:02;;;;;;;5.25;3.13;;;24.60;49.10;;;;;;6155996;28;80420;-70
2022/06/23 00:42:03;;;;;;;4.15;2.55;;;24.60;49.20;;;;;;6158337;28;80611;-70
2022/06/23 00:45:03;;;;;;;7.00;2.88;;;24.60;49.30;;;;;;6158187;28;80596;-70
2022/06/23 00:48:03;;;;;;;5.55;3.20;;;24.60;49.20;;;;;;6158334;28;80471;-69
2022/06/23 00:51:04;;;;;;;6.38;2.67;;;24.60;49.50;;;;;;6158553;28;80546;-69
2022/06/23 00:54:04;;;;;;;5.55;3.03;;;24.60;49.30;;;;;;6157701;28;80638;-69
2022/06/23 00:57:05;;;;;;;8.48;3.03;;;24.60;49.40;;;;;;6158074;28;80514;-69
2022/06/23 01:00:05;;;;;;;7.32;3.38;;;24.60;49.40;;;;;;6149326;28;80424;-70
2022/06/23 01:03:06;;;;;;;6.47;2.85;;;24.60;49.40;;;;;;6157514;28;80428;-70
2022/06/23 01:06:06;;;;;;;5.10;3.03;;;24.60;49.30;;;;;;6161123;28;81068;-70
2022/06/23 01:09:07;;;;;;;4.82;3.45;;;24.60;49.30;;;;;;6153550;28;81484;-70
2022/06/23 01:12:07;;;;;;;3.83;2.70;;;24.60;49.40;;;;;;6161330;28;80339;-69
2022/06/23 01:15:08;;;;;;;4.68;3.00;;;24.60;49.50;;;;;;6161809;28;81635;-69
2022/06/23 01:18:08;;;;;;;6.57;3.15;;;24.60;49.50;;;;;;6161703;28;80396;-69
2022/06/23 01:21:09;;;;;;;4.63;2.92;;;24.60;49.50;;;;;;6161817;28;80349;-69
2022/06/23 01:24:10;;;;;;;4.90;3.00;;;24.60;49.70;;;;;;6161037;28;80335;-69
2022/06/23 01:27:10;;;;;;;4.65;2.92;;;24.50;49.60;;;;;;6162058;28;80667;-68
2022/06/23 01:30:11;;;;;;;4.72;2.60;;;24.60;49.80;;;;;;6161858;28;80594;-68
2022/06/23 01:33:11;;;;;;;6.18;2.97;;;24.50;49.60;;;;;;6161931;28;80713;-69
2022/06/23 01:36:11;;;;;;;7.53;3.20;;;24.50;49.70;;;;;;6161663;28;80500;-68
2022/06/23 01:39:12;;;;;;;4.50;2.63;;;24.50;49.60;;;;;;6161863;28;80434;-70
2022/06/23 01:42:12;;;;;;;5.85;3.10;;;24.50;49.70;;;;;;6161027;28;80487;-68
2022/06/23 01:45:13;;;;;;;4.80;2.88;;;24.50;49.70;;;;;;6160956;28;81321;-68
2022/06/23 01:48:13;;;;;;;5.72;3.15;;;24.50;49.90;;;;;;6160915;28;80646;-67
2022/06/23 01:51:14;;;;;;;5.38;3.03;;;24.50;49.60;;;;;;6160630;28;80900;-67
2022/06/23 01:54:14;;;;;;;3.58;2.70;;;24.50;49.70;;;;;;6160758;28;81322;-68
2022/06/23 01:57:15;;;;;;;6.43;3.10;;;24.50;49.70;;;;;;6158650;28;80627;-68
2022/06/23 02:00:15;;;;;;;5.78;2.88;;;24.50;49.60;;;;;;6160954;28;80195;-69
2022/06/23 02:03:16;;;;;;;5.60;2.80;;;24.50;49.90;;;;;;6160570;28;81416;-69
2022/06/23 02:06:16;;;;;;;11.93;3.10;;;24.50;49.70;;;;;;6160706;28;81617;-69
2022/06/23 02:09:17;;;;;;;16.05;3.05;;;24.50;49.70;;;;;;6160665;28;81947;-68
2022/06/23 02:12:17;;;;;;;7.60;3.00;;;24.50;49.70;;;;;;6160520;28;81199;-67
2022/06/23 02:15:18;;;;;;;7.80;3.03;;;24.50;49.70;;;;;;6160029;28;80443;-68
2022/06/23 02:18:18;;;;;;;8.35;2.90;;;24.40;49.70;;;;;;6160326;28;81866;-67
2022/06/23 02:21:19;;;;;;;4.57;2.75;;;24.40;49.70;;;;;;6160049;28;80399;-68
2022/06/23 02:24:19;;;;;;;5.50;3.15;;;24.40;49.80;;;;;;6160028;28;80194;-69
2022/06/23 02:27:20;;;;;;;5.18;2.80;;;24.40;49.80;;;;;;6159339;28;80834;-69
2022/06/23 02:30:20;;;;;;;5.53;3.17;;;24.40;49.80;;;;;;6160839;28;80520;-70
2022/06/23 02:33:21;;;;;;;4.25;2.65;;;24.40;49.80;;;;;;6157130;28;80853;-68
2022/06/23 02:36:21;;;;;;;4.40;3.10;;;24.40;49.90;;;;;;6159659;28;81611;-70
2022/06/23 02:39:22;;;;;;;6.60;3.03;;;24.40;50.00;;;;;;6160146;28;80135;-70
2022/06/23 02:42:22;;;;;;;5.03;2.67;;;24.40;50.00;;;;;;6160403;28;80502;-70
2022/06/23 02:45:23;;;;;;;7.80;3.20;;;24.30;50.00;;;;;;6159834;28;81558;-68
2022/06/23 02:48:23;;;;;;;5.47;3.20;;;24.30;50.00;;;;;;6160261;28;80863;-69
2022/06/23 02:51:24;;;;;;;5.35;3.00;;;24.30;50.00;;;;;;6159897;28;80500;-68
2022/06/23 02:54:24;;;;;;;5.60;3.15;;;24.30;50.00;;;;;;6154155;28;80420;-68
2022/06/23 02:57:25;;;;;;;5.50;3.58;;;24.30;50.10;;;;;;6159951;28;86588;-70
2022/06/23 03:00:25;;;;;;;7.25;3.25;;;24.30;50.20;;;;;;6160360;28;80314;-71
2022/06/23 03:03:26;;;;;;;6.15;3.35;;;24.30;50.20;;;;;;6160274;28;80418;-71
2022/06/23 03:06:26;;;;;;;4.13;2.65;;;24.30;50.20;;;;;;6160393;28;80562;-70
2022/06/23 03:09:28;;;;;;;4.68;2.75;;;24.30;50.30;;;;;;6160465;28;80752;-70
2022/06/23 03:12:29;;;;;;;4.43;2.90;;;24.30;50.20;;;;;;6159779;28;80482;-69
2022/06/23 03:15:29;;;;;;;5.07;3.13;;;24.30;50.20;;;;;;6154324;28;80378;-68
2022/06/23 03:18:30;;;;;;;11.40;3.20;;;24.30;50.20;;;;;;6158294;28;81387;-68
2022/06/23 03:21:30;;;;;;;4.60;2.70;;;24.30;50.20;;;;;;6150657;28;80536;-67
2022/06/23 03:24:30;;;;;;;8.15;3.25;;;24.30;50.30;;;;;;6159897;28;81163;-69
2022/06/23 03:27:31;;;;;;;5.80;3.10;;;24.30;50.60;;;;;;6156034;28;80392;-69
2022/06/23 03:30:31;;;;;;;6.90;3.53;;;24.30;50.80;;;;;;6159755;28;81590;-68
2022/06/23 03:33:32;;;;;;;7.15;3.33;;;24.30;50.60;;;;;;6159848;28;80197;-65
2022/06/23 03:36:32;;;;;;;13.23;3.25;;;24.30;50.70;;;;;;6158713;28;80446;-65
2022/06/23 03:42:52;;;;;;;4.60;2.97;;;24.40;50.90;;;;;;6149493;28;80593;-71
2022/06/23 03:45:53;;;;;;;8.30;3.13;;;24.40;50.90;;;;;;6160331;28;80832;-74
2022/06/23 03:48:53;;;;;;;4.07;2.60;;;24.40;50.80;;;;;;6160241;28;80512;-73
2022/06/23 03:51:54;;;;;;;6.13;2.60;;;24.50;50.90;;;;;;6159146;28;81005;-64
2022/06/23 03:54:54;;;;;;;5.53;3.22;;;24.50;51.00;;;;;;6151699;28;80455;-67
2022/06/23 03:57:55;;;;;;;5.88;3.10;;;24.50;51.00;;;;;;6154426;28;81414;-64
2022/06/23 04:00:56;;;;;;;4.80;2.55;;;24.50;51.20;;;;;;6158354;28;80523;-63
2022/06/23 04:03:57;;;;;;;6.25;3.20;;;24.50;51.00;;;;;;6156501;28;80049;-64
2022/06/23 04:06:57;;;;;;;7.63;3.40;;;24.50;51.10;;;;;;6158950;28;80380;-66
2022/06/23 04:09:58;;;;;;;10.38;3.22;;;24.50;51.10;;;;;;6158812;28;80400;-64
2022/06/23 04:12:58;;;;;;;4.78;2.65;;;24.50;51.40;;;;;;6166573;28;80614;-78
2022/06/23 04:15:59;;;;;;;9.82;3.67;;;24.50;51.40;;;;;;6155014;28;79992;-65
2022/06/23 04:18:59;;;;;;;11.75;3.47;;;24.60;51.50;;;;;;6157265;28;80422;-66
2022/06/23 04:22:00;;;;;;;12.23;3.75;;;24.50;51.40;;;;;;6155978;28;81770;-66
2022/06/23 04:25:00;;;;;;;9.48;3.67;;;24.60;51.40;;;;;;6149031;28;80071;-66
2022/06/23 04:28:01;;;;;;;7.68;3.40;;;24.60;51.40;;;;;;6146897;28;80965;-66
2022/06/23 04:31:01;;;;;;;9.82;3.40;;;24.60;51.40;;;;;;6143658;28;80919;-67
2022/06/23 04:34:02;;;;;;;7.45;3.50;;;24.60;51.30;;;;;;6156846;28;80615;-66
2022/06/23 04:37:02;;;;;;;6.25;3.85;;;24.60;51.30;;;;;;6156965;28;81639;-66
2022/06/23 04:40:03;;;;;;;7.63;3.67;;;24.60;51.40;;;;;;6161163;28;80582;-66
2022/06/23 04:43:03;;;;;;;11.20;3.70;;;24.60;51.30;;;;;;6160822;28;81892;-66
2022/06/23 04:46:04;;;;;;;7.13;3.90;;;24.60;51.30;;;;;;6157126;28;80772;-66
2022/06/23 04:49:04;;;;;;;8.45;3.30;;;24.60;51.30;;;;;;6162323;28;81754;-66
2022/06/23 04:52:05;;;;;;;12.95;3.33;;;24.60;51.20;;;;;;6153338;28;80409;-66
2022/06/23 04:55:05;;;;;;;12.20;3.63;;;24.60;51.30;;;;;;6154317;28;83252;-65
2022/06/23 04:58:06;;;;;;;8.65;3.38;;;24.60;51.20;;;;;;6162513;28;80631;-67
2022/06/23 05:01:06;;;;;;;8.93;3.47;;;24.60;51.10;;;;;;6159235;28;80493;-67
2022/06/23 05:04:11;;;;;;;7.70;3.72;;;24.60;51.20;;;;;;6161832;28;80244;-66
2022/06/23 05:07:12;;;;;;;11.95;3.80;;;24.60;51.10;;;;;;6158468;28;81331;-74
2022/06/23 05:10:12;;;;;;;6.95;2.90;;;24.60;51.10;;;;;;6162773;28;81400;-66
2022/06/23 05:13:13;;;;;;;25.88;3.70;;;24.60;51.20;;;;;;6152575;28;80859;-66
2022/06/23 05:16:13;;;;;;;13.77;3.80;;;24.60;51.40;;;;;;6160154;28;80762;-65
2022/06/23 05:19:14;;;;;;;8.63;3.35;;;24.60;51.30;;;;;;6161200;28;81799;-65
2022/06/23 05:22:14;;;;;;;9.70;3.47;;;24.60;51.60;;;;;;6155413;28;80785;-66
2022/06/23 05:25:14;;;;;;;11.20;4.18;;;24.60;51.70;;;;;;6159355;28;80906;-66
2022/06/23 05:28:15;;;;;;;14.20;3.92;;;24.70;51.60;;;;;;6161354;28;80692;-66
2022/06/23 05:31:15;;;;;;;12.32;4.63;;;24.70;51.30;;;;;;6159771;28;81421;-66
2022/06/23 05:34:16;;;;;;;8.55;4.07;;;24.70;51.00;;;;;;6160997;28;80625;-66
2022/06/23 05:37:16;;;;;;;11.95;4.10;;;24.70;50.90;;;;;;6151307;28;80656;-66
2022/06/23 05:40:19;;;;;;;16.05;3.70;;;24.70;51.00;;;;;;6154545;28;80496;-66
2022/06/23 05:43:20;;;;;;;10.90;3.88;;;24.70;50.80;;;;;;6158181;28;80956;-71
2022/06/23 05:46:20;;;;;;;12.68;3.95;;;24.70;51.00;;;;;;6157134;28;80366;-71
2022/06/23 05:49:21;;;;;;;10.45;3.70;;;24.70;50.90;;;;;;6161406;28;80306;-67
2022/06/23 05:52:22;;;;;;;8.35;4.03;;;24.70;50.90;;;;;;6161085;28;80164;-67
2022/06/23 05:55:22;;;;;;;11.18;3.40;;;24.70;50.90;;;;;;6160756;28;80881;-66
2022/06/23 05:58:23;;;;;;;9.48;4.32;;;24.70;50.80;;;;;;6157790;28;80469;-65
2022/06/23 06:01:24;;;;;;;7.78;4.03;;;24.60;50.30;;;;;;6138760;28;82228;-68
2022/06/23 06:04:24;;;;;;;8.48;3.58;;;24.60;50.00;;;;;;6149499;28;82007;-71
2022/06/23 06:07:25;;;;;;;9.60;3.35;;;24.60;49.90;;;;;;6143679;28;80343;-65
2022/06/23 06:10:25;;;;;;;7.60;3.25;;;24.60;50.20;;;;;;6154771;28;80535;-66
2022/06/23 06:13:25;;;;;;;9.93;3.28;;;24.60;49.70;;;;;;6158264;28;80306;-66
2022/06/23 06:16:26;;;;;;;5.53;2.97;;;24.60;48.70;;;;;;6168190;28;87678;-67
2022/06/23 06:19:26;;;;;;;5.63;3.03;;;24.60;47.90;;;;;;6159305;28;81564;-68
2022/06/23 06:22:27;;;;;;;8.02;2.90;;;24.50;48.20;;;;;;6160030;28;80305;-67
2022/06/23 06:25:27;;;;;;;5.97;3.30;;;24.50;48.50;;;;;;6160883;28;80280;-68
2022/06/23 06:28:28;;;;;;;9.18;3.22;;;24.50;48.10;;;;;;6159889;28;80967;-68
2022/06/23 06:31:28;;;;;;;5.32;2.92;;;24.40;47.40;;;;;;6157007;28;80365;-68
2022/06/23 06:34:29;;;;;;;5.78;3.00;;;24.40;47.50;;;;;;6155079;28;80522;-68
2022/06/23 06:37:29;;;;;;;6.53;3.20;;;24.40;47.60;;;;;;6158017;28;80861;-69
2022/06/23 06:40:30;;;;;;;7.72;3.65;;;24.40;47.40;;;;;;6160181;28;80328;-67
2022/06/23 06:43:30;;;;;;;13.50;3.75;;;24.40;47.50;;;;;;6160153;28;81117;-68
2022/06/23 06:46:31;;;;;;;13.85;3.65;;;24.40;47.40;;;;;;6159673;28;80377;-68
2022/06/23 06:49:32;;;;;;;13.60;3.08;;;24.40;48.30;;;;;;6160345;28;80610;-68
2022/06/23 06:52:32;;;;;;;10.75;3.78;;;24.40;47.50;;;;;;6159955;28;80691;-68
2022/06/23 06:55:33;;;;;;;12.75;3.47;;;24.40;47.10;;;;;;6160178;28;81571;-68
2022/06/23 06:58:33;;;;;;;8.95;3.40;;;24.40;46.90;;;;;;6159856;28;81011;-67
2022/06/23 07:01:34;;;;;;;7.03;3.05;;;24.40;47.30;;;;;;6157196;28;83946;-68
2022/06/23 07:04:34;;;;;;;5.63;3.30;;;24.40;47.60;;;;;;6159737;28;80489;-68
2022/06/23 07:07:35;;;;;;;9.13;3.20;;;24.30;48.10;;;;;;6159338;28;80403;-68
2022/06/23 07:10:35;;;;;;;8.65;3.38;;;24.30;48.40;;;;;;6153324;28;80649;-68
2022/06/23 07:13:36;;;;;;;10.07;3.92;;;24.30;48.40;;;;;;6157939;28;80347;-68
2022/06/23 07:16:36;;;;;;;10.48;3.53;;;24.30;48.60;;;;;;6145107;28;80239;-68
2022/06/23 07:19:36;;;;;;;12.07;4.38;;;24.30;48.40;;;;;;6159902;28;81017;-68
2022/06/23 07:22:37;;;;;;;12.98;4.47;;;24.40;47.60;;;;;;6158931;28;81608;-68
2022/06/23 07:25:37;;;;;;;10.57;4.00;;;24.30;47.00;;;;;;6159849;28;80706;-68
2022/06/23 07:28:38;;;;;;;9.68;4.00;;;24.40;47.00;;;;;;6157471;28;81803;-67
2022/06/23 07:31:38;;;;;;;9.52;3.80;;;24.40;48.20;;;;;;6157062;28;80383;-68
2022/06/23 07:34:39;;;;;;;6.68;3.85;;;24.40;47.70;;;;;;6161560;28;80517;-77
2022/06/23 07:37:39;;;;;;;14.57;4.28;;;24.40;48.00;;;;;;6156155;28;80823;-67
2022/06/23 07:40:40;;;;;;;8.35;3.53;;;24.50;48.50;;;;;;6154570;28;82212;-68
2022/06/23 07:43:40;;;;;;;11.07;4.07;;;24.50;48.30;;;;;;6151784;28;80295;-67
2022/06/23 07:46:41;;;;;;;10.30;3.85;;;24.50;47.70;;;;;;6147146;28;80276;-68
2022/06/23 07:49:41;;;;;;;10.75;3.30;;;24.50;48.80;;;;;;6150322;28;80435;-68
2022/06/23 07:52:42;;;;;;;18.10;4.13;;;24.50;48.10;;;;;;6143921;28;80477;-67
2022/06/23 07:55:42;;;;;;;12.55;4.03;;;24.50;48.30;;;;;;6148945;28;81623;-67
2022/06/23 07:58:42;;;;;;;11.00;3.53;;;24.60;48.20;;;;;;6144586;28;81443;-66
2022/06/23 08:01:43;;;;;;;12.15;4.22;;;24.70;48.30;;;;;;6146596;28;81490;-65
2022/06/23 08:04:43;;;;;;;8.30;3.45;;;24.60;48.30;;;;;;6159342;28;80755;-69
2022/06/23 08:07:44;;;;;;;6.75;3.25;;;24.60;48.80;;;;;;6159264;28;81390;-71
2022/06/23 08:10:44;;;;;;;20.20;4.65;;;24.70;48.60;;;;;;6154456;28;80838;-69
2022/06/23 08:13:45;;;;;;;16.90;5.35;;;24.70;49.20;;;;;;6158988;28;80787;-72
2022/06/23 08:16:51;;;;;;;15.23;3.67;;;24.80;51.10;;;;;;6157219;28;81898;-73
2022/06/23 08:19:52;;;;;;;12.40;3.50;;;24.60;48.60;;;;;;6149110;28;82850;-72
2022/06/23 08:22:52;;;;;;;7.20;3.08;;;24.70;49.30;;;;;;6150371;28;81129;-71
2022/06/23 08:25:53;;;;;;;6.28;3.15;;;24.70;49.10;;;;;;6158340;28;81916;-68
2022/06/23 08:28:53;;;;;;;6.82;2.95;;;24.80;49.30;;;;;;6155823;28;81530;-68
2022/06/23 08:31:54;;;;;;;13.50;3.40;;;24.80;49.30;;;;;;6148209;28;81161;-66
2022/06/23 08:34:54;;;;;;;14.68;3.35;;;24.90;49.10;;;;;;6153734;28;80881;-68
2022/06/23 08:37:55;;;;;;;12.25;3.10;;;24.80;48.60;;;;;;6145000;28;80891;-67
2022/06/23 08:40:55;;;;;;;9.25;3.60;;;24.90;48.70;;;;;;6144861;28;83663;-67
2022/06/23 08:43:56;;;;;;;6.43;3.03;;;24.90;48.50;;;;;;6149927;28;83015;-68
2022/06/23 08:46:56;;;;;;;5.95;2.60;;;24.90;48.10;;;;;;6157322;28;80773;-65
2022/06/23 08:49:56;;;;;;;4.43;2.63;;;25.00;48.30;;;;;;6155711;28;80723;-72
2022/06/23 08:52:57;;;;;;;6.97;2.92;;;25.00;48.20;;;;;;6160630;28;81134;-67
2022/06/23 08:55:57;;;;;;;16.25;3.40;;;25.00;48.60;;;;;;6158630;28;81564;-72
2022/06/23 08:58:58;;;;;;;11.95;3.08;;;24.90;48.20;;;;;;6158790;28;80438;-72
2022/06/23 09:01:58;;;;;;;10.38;3.08;;;25.00;48.30;;;;;;6159706;28;80291;-66
2022/06/23 09:04:59;;;;;;;13.55;2.80;;;25.00;48.30;;;;;;6158420;28;80272;-66
2022/06/23 09:07:59;;;;;;;5.50;2.25;;;25.00;47.60;;;;;;6158473;28;80869;-65
2022/06/23 09:11:00;;;;;;;6.35;2.13;;;24.90;46.80;;;;;;6158396;28;80438;-66
2022/06/23 09:14:00;;;;;;;4.45;2.33;;;25.00;46.90;;;;;;6157821;28;80274;-63
2022/06/23 09:17:01;;;;;;;3.15;1.90;;;25.00;46.50;;;;;;6153839;28;81061;-66
2022/06/23 09:20:01;;;;;;;6.75;2.50;;;25.10;46.70;;;;;;6151423;28;81829;-65
2022/06/23 09:23:02;;;;;;;2.85;2.20;;;25.10;46.40;;;;;;6158156;28;80169;-66
2022/06/23 09:26:02;;;;;;;3.47;2.35;;;25.20;45.90;;;;;;6154341;28;87606;-67
2022/06/23 09:29:02;;;;;;;4.38;1.95;;;25.20;46.50;;;;;;6156010;28;81519;-66
2022/06/23 09:32:03;;;;;;;8.40;2.20;;;25.20;45.90;;;;;;6161373;28;80731;-65
2022/06/23 09:35:03;;;;;;;5.45;1.80;;;25.30;46.30;;;;;;6162047;28;80897;-66
2022/06/23 09:38:04;;;;;;;3.15;1.88;;;25.20;45.30;;;;;;6162085;28;80395;-65
2022/06/23 09:41:04;;;;;;;3.03;1.80;;;25.20;45.10;;;;;;6154658;28;80429;-65
2022/06/23 09:44:05;;;;;;;3.22;1.77;;;25.20;44.50;;;;;;6156821;28;80110;-65
2022/06/23 09:47:05;;;;;;;2.63;2.05;;;25.20;44.50;;;;;;6161546;28;81666;-65
2022/06/23 09:50:07;;;;;;;2.10;1.90;;;25.20;44.90;;;;;;6160460;28;80930;-65
2022/06/23 09:53:07;;;;;;;12.80;4.38;;;25.20;45.30;;;;;;6158453;28;81161;-65
2022/06/23 09:56:08;;;;;;;16.33;4.32;;;25.30;46.50;;;;;;6147735;28;80456;-65
2022/06/23 09:59:08;;;;;;;18.25;5.45;;;25.30;46.40;;;;;;6150493;28;81114;-66
2022/06/23 10:02:09;;;;;;;9.95;4.05;;;25.30;46.00;;;;;;6155632;28;81344;-66
2022/06/23 10:05:09;;;;;;;10.30;3.47;;;25.30;45.40;;;;;;6157552;28;80634;-67
2022/06/23 10:08:10;;;;;;;16.80;3.63;;;25.30;45.80;;;;;;6161332;28;80132;-67
2022/06/23 10:11:10;;;;;;;6.10;3.08;;;25.40;45.70;;;;;;6157480;28;80344;-66
2022/06/23 10:14:10;;;;;;;10.20;2.47;;;25.30;43.10;;;;;;6141860;28;80671;-66
2022/06/23 10:17:11;;;;;;;2.70;2.17;;;25.20;42.90;;;;;;6149813;28;81831;-66
2022/06/23 10:20:11;;;;;;;8.15;2.38;;;25.30;44.10;;;;;;6154054;28;81681;-66
2022/06/23 10:23:12;;;;;;;6.50;2.30;;;25.30;43.70;;;;;;6146691;28;81902;-65
2022/06/23 10:26:12;;;;;;;3.10;2.08;;;25.30;43.60;;;;;;6150406;28;80568;-64
2022/06/23 10:29:13;;;;;;;14.10;2.63;;;25.40;43.60;;;;;;6153286;28;81245;-64
2022/06/23 10:32:13;;;;;;;6.43;2.58;;;25.40;43.40;;;;;;6140554;28;80912;-64
2022/06/23 10:35:14;;;;;;;9.80;2.83;;;25.40;43.40;;;;;;6140626;28;80545;-64
2022/06/23 10:38:14;;;;;;;10.32;4.72;;;25.40;43.50;;;;;;6142602;28;82235;-64
2022/06/23 10:41:15;;;;;;;15.45;5.10;;;25.30;42.50;;;;;;6142637;28;80911;-64
2022/06/23 10:44:15;;;;;;;19.92;6.75;;;25.30;42.30;;;;;;6140706;28;80568;-65
2022/06/23 10:47:16;;;;;;;23.83;7.45;;;25.30;42.70;;;;;;6146004;28;80531;-65
2022/06/23 10:50:16;;;;;;;38.13;13.68;;;25.30;42.70;;;;;;6143710;28;81688;-65
2022/06/23 10:53:17;;;;;;;14.48;6.65;;;25.40;43.40;;;;;;6136212;28;84014;-65
2022/06/23 10:56:17;;;;;;;26.35;9.60;;;25.30;43.10;;;;;;6140494;28;84023;-65
2022/06/23 10:59:18;;;;;;;40.75;15.23;;;25.30;43.30;;;;;;6147714;28;87365;-65
2022/06/23 11:02:18;;;;;;;36.00;12.30;;;25.40;43.40;;;;;;6148322;28;83658;-66
2022/06/23 11:05:19;;;;;;;57.47;19.55;;;25.40;42.90;;;;;;6154562;28;83741;-66
2022/06/23 11:08:19;;;;;;;56.40;16.67;;;25.50;43.80;;;;;;6157382;28;82874;-66
2022/06/23 11:11:20;;;;;;;65.80;19.55;;;25.50;43.20;;;;;;6154262;28;86094;-66
2022/06/23 11:14:20;;;;;;;28.08;9.75;;;25.50;43.80;;;;;;6156861;28;83453;-65
2022/06/23 11:17:21;;;;;;;25.48;10.15;;;25.50;43.20;;;;;;6156682;28;84528;-74
2022/06/23 11:20:21;;;;;;;23.58;9.02;;;25.40;42.70;;;;;;6158425;28;82694;-74
2022/06/23 11:23:21;;;;;;;23.45;7.35;;;25.40;43.00;;;;;;6160063;28;82996;-76
2022/06/23 11:26:22;;;;;;;10.43;4.32;;;25.40;43.20;;;;;;6158020;28;80651;-75
2022/06/23 11:29:22;;;;;;;10.40;3.78;;;25.40;43.00;;;;;;6152283;28;81632;-65
2022/06/23 11:32:23;;;;;;;11.43;3.72;;;25.40;43.20;;;;;;6151740;28;82259;-65
2022/06/23 11:35:23;;;;;;;2.40;1.98;;;25.40;44.00;;;;;;6147643;28;81920;-65
2022/06/23 11:38:24;;;;;;;4.43;2.10;;;25.40;42.50;;;;;;6156640;28;80406;-75
2022/06/23 11:41:24;;;;;;;3.65;2.20;;;25.40;42.80;;;;;;6149558;28;80431;-64
2022/06/23 11:44:25;;;;;;;3.70;2.35;;;25.40;42.70;;;;;;6150681;28;80358;-64
2022/06/23 11:47:25;;;;;;;4.35;1.90;;;25.40;42.00;;;;;;6151581;28;82308;-64
2022/06/23 11:50:26;;;;;;;2.75;2.20;;;25.40;42.20;;;;;;6158023;28;81985;-64
2022/06/23 11:53:26;;;;;;;5.65;1.95;;;25.50;42.40;;;;;;6158614;28;80413;-64
2022/06/23 11:56:27;;;;;;;3.90;2.10;;;25.50;43.20;;;;;;6152157;28;81820;-65
2022/06/23 11:59:27;;;;;;;3.67;2.20;;;25.60;43.50;;;;;;6152883;28;80795;-65
2022/06/23 12:02:28;;;;;;;4.45;1.92;;;25.60;43.70;;;;;;6150865;28;81519;-65
2022/06/23 12:05:28;;;;;;;4.38;2.30;;;25.60;43.60;;;;;;6142284;28;87539;-65
2022/06/23 12:08:29;;;;;;;2.78;2.20;;;25.60;43.70;;;;;;6147292;28;80608;-65
2022/06/23 12:11:30;;;;;;;1.77;1.58;;;25.60;43.70;;;;;;6147592;28;81815;-64
2022/06/23 12:14:31;;;;;;;2.25;1.70;;;25.60;43.70;;;;;;6146142;28;81448;-65
2022/06/23 12:17:31;;;;;;;5.32;2.15;;;25.60;43.70;;;;;;6148568;28;81379;-65
2022/06/23 12:20:32;;;;;;;3.10;2.13;;;25.70;43.80;;;;;;6149973;28;81883;-65
2022/06/23 12:23:32;;;;;;;3.03;2.05;;;25.70;43.70;;;;;;6149977;28;80573;-64
2022/06/23 12:26:33;;;;;;;3.33;1.90;;;25.70;44.10;;;;;;6147399;28;80764;-65
2022/06/23 12:29:33;;;;;;;3.08;1.77;;;25.70;44.10;;;;;;6148512;28;82665;-65
2022/06/23 12:32:34;;;;;;;6.85;2.10;;;25.70;44.30;;;;;;6149593;28;81139;-65
2022/06/23 12:35:34;;;;;;;7.28;2.25;;;25.70;42.90;;;;;;6153255;28;80445;-65
2022/06/23 12:38:34;;;;;;;2.97;2.08;;;25.70;42.60;;;;;;6158406;28;83457;-65
2022/06/23 12:41:35;;;;;;;3.08;1.90;;;25.70;42.90;;;;;;6156650;28;80419;-64
2022/06/23 12:44:35;;;;;;;6.25;2.25;;;25.70;42.90;;;;;;6158328;28;81550;-78
2022/06/23 12:47:36;;;;;;;3.05;2.17;;;25.70;43.50;;;;;;6157228;28;81698;-66
2022/06/23 12:50:36;;;;;;;8.57;2.08;;;25.70;43.30;;;;;;6158345;28;81257;-66
2022/06/23 12:53:37;;;;;;;3.15;1.85;;;25.70;43.40;;;;;;6157991;28;80283;-66
2022/06/23 12:56:37;;;;;;;2.95;2.03;;;25.70;43.70;;;;;;6148588;28;80419;-66
2022/06/23 12:59:38;;;;;;;5.78;2.17;;;25.70;43.00;;;;;;6158207;28;80439;-65
2022/06/23 13:02:38;;;;;;;3.08;2.00;;;25.70;43.00;;;;;;6159859;28;80385;-66
2022/06/23 13:05:39;;;;;;;3.50;2.20;;;25.70;42.70;;;;;;6161569;28;87651;-65
2022/06/23 13:08:39;;;;;;;5.38;1.90;;;25.60;42.60;;;;;;6162431;28;81459;-66
2022/06/23 13:11:40;;;;;;;6.63;2.05;;;25.60;42.90;;;;;;6162812;28;80703;-65
2022/06/23 13:14:41;;;;;;;5.72;2.20;;;25.70;43.50;;;;;;6161828;28;80588;-68
2022/06/23 13:17:41;;;;;;;7.18;2.13;;;25.70;43.20;;;;;;6159688;28;81992;-66
2022/06/23 13:20:42;;;;;;;4.43;2.00;;;25.70;43.60;;;;;;6161567;28;80281;-66
2022/06/23 13:23:42;;;;;;;9.30;2.08;;;25.70;44.00;;;;;;6161343;28;80453;-67
2022/06/23 13:26:44;;;;;;;4.70;2.05;;;25.70;44.10;;;;;;6154890;28;81139;-67
2022/06/23 13:29:44;;;;;;;4.88;2.00;;;25.70;44.50;;;;;;6151737;28;80222;-67
2022/06/23 13:32:45;;;;;;;3.47;1.90;;;25.70;44.20;;;;;;6162079;28;80890;-67
2022/06/23 13:35:45;;;;;;;2.80;1.92;;;25.70;44.10;;;;;;6151429;28;81571;-67
2022/06/23 13:38:46;;;;;;;9.02;2.25;;;25.70;43.90;;;;;;6141361;28;80463;-66
2022/06/23 13:41:46;;;;;;;5.38;2.63;;;25.70;43.70;;;;;;6147082;28;80619;-67
2022/06/23 13:44:47;;;;;;;5.80;2.00;;;25.70;43.60;;;;;;6146317;28;81401;-68
2022/06/23 13:47:47;;;;;;;2.90;2.05;;;25.70;43.50;;;;;;6140303;28;80947;-68
2022/06/23 13:50:48;;;;;;;5.93;2.13;;;25.70;44.00;;;;;;6137967;28;81087;-67
2022/06/23 13:53:48;;;;;;;11.32;2.03;;;25.70;43.90;;;;;;6144370;28;80737;-66
2022/06/23 13:56:49;;;;;;;3.65;2.10;;;25.70;43.60;;;;;;6146808;28;81809;-67
2022/06/23 13:59:49;;;;;;;4.75;2.08;;;25.80;43.90;;;;;;6143216;28;80500;-67
2022/06/23 14:02:50;;;;;;;4.68;2.00;;;25.80;44.10;;;;;;6148875;28;81830;-67
2022/06/23 14:05:50;;;;;;;5.50;2.40;;;25.80;44.00;;;;;;6146469;28;80610;-67
2022/06/23 14:08:51;;;;;;;3.92;2.38;;;25.80;43.80;;;;;;6147210;28;82002;-67
2022/06/23 14:11:51;;;;;;;2.10;1.92;;;25.70;43.50;;;;;;6143099;28;80516;-67
2022/06/23 14:14:52;;;;;;;4.47;2.00;;;25.70;42.40;;;;;;6149327;28;80588;-67
2022/06/23 14:17:52;;;;;;;5.35;2.33;;;25.70;42.70;;;;;;6152461;28;80929;-66
2022/06/23 14:20:53;;;;;;;2.55;2.00;;;25.70;42.30;;;;;;6142834;28;80584;-66
2022/06/23 14:23:53;;;;;;;23.98;2.97;;;25.70;42.70;;;;;;6144162;28;80589;-68
2022/06/23 14:26:54;;;;;;;2.38;1.98;;;25.70;43.40;;;;;;6140167;28;81078;-69
2022/06/23 14:29:54;;;;;;;12.43;2.38;;;25.70;43.00;;;;;;6151532;28;80641;-66
2022/06/23 14:32:55;;;;;;;2.72;2.03;;;25.70;43.40;;;;;;6155177;28;80445;-68
2022/06/23 14:35:55;;;;;;;4.03;2.58;;;25.70;43.50;;;;;;6160375;28;80240;-68
2022/06/23 14:38:56;;;;;;;3.95;2.22;;;25.80;43.70;;;;;;6169936;28;80177;-67
2022/06/23 14:41:56;;;;;;;6.75;2.35;;;25.80;43.30;;;;;;6164538;28;80704;-68
2022/06/23 14:44:56;;;;;;;8.95;2.83;;;25.80;43.00;;;;;;6158571;28;80771;-69
2022/06/23 14:47:57;;;;;;;3.08;1.98;;;25.80;43.00;;;;;;6153199;28;80321;-68
2022/06/23 14:50:57;;;;;;;9.43;2.20;;;25.80;42.10;;;;;;6138050;28;80340;-69
2022/06/23 14:53:58;;;;;;;7.60;2.28;;;25.70;41.70;;;;;;6157155;28;83437;-68
2022/06/23 14:56:58;;;;;;;9.15;2.13;;;25.80;42.50;;;;;;6155810;28;80647;-68
2022/06/23 14:59:59;;;;;;;7.10;1.92;;;25.90;42.90;;;;;;6162788;28;80041;-68
2022/06/23 15:02:59;;;;;;;2.55;1.73;;;25.90;43.30;;;;;;6160425;28;81117;-68
2022/06/23 15:06:00;;;;;;;7.53;2.17;;;25.90;43.40;;;;;;6155950;28;80250;-67
2022/06/23 15:09:00;;;;;;;2.20;1.95;;;25.90;43.70;;;;;;6160618;28;80599;-76
2022/06/23 15:12:01;;;;;;;6.32;2.45;;;25.90;43.80;;;;;;6156535;28;81358;-64
2022/06/23 15:15:02;;;;;;;3.60;1.67;;;25.90;43.70;;;;;;6158900;28;81022;-64
2022/06/23 15:18:02;;;;;;;7.78;2.10;;;26.00;43.40;;;;;;6158119;28;82911;-64
2022/06/23 15:21:03;;;;;;;3.05;2.08;;;26.00;43.10;;;;;;6151209;28;81257;-66
2022/06/23 15:24:03;;;;;;;9.18;2.47;;;26.00;43.00;;;;;;6151454;28;80970;-63
2022/06/23 15:27:04;;;;;;;3.92;2.50;;;26.00;43.30;;;;;;6153796;28;80491;-63
2022/06/23 15:30:05;;;;;;;6.88;2.65;;;26.00;43.20;;;;;;6159218;28;81718;-62
2022/06/23 15:33:05;;;;;;;7.32;2.55;;;26.00;43.80;;;;;;6159009;28;80549;-62
2022/06/23 15:36:05;;;;;;;3.92;2.20;;;25.90;43.90;;;;;;6158973;28;80100;-61
2022/06/23 15:39:06;;;;;;;5.47;3.15;;;25.90;43.80;;;;;;6150100;28;80861;-62